sensor_id;sensor_type;location;lat;lon;timestamp;P1;durP1;ratioP1;P2;durP2;ratioP2
15990;SDS011;8100;50.994;4.538;2023-08-01T00:01:26;1.75;;;0.82;;
15990;SDS011;8100;50.994;4.538;2023-08-01T00:04:13;1.73;;;0.88;;
15990;SDS011;8100;50.994;4.538;2023-08-01T00:07:03;1.67;;;0.82;;
15990;SDS011;8100;50.994;4.538;2023-08-01T00:09:50;1.85;;;0.98;;
15990;SDS011;8100;50.994;4.538;2023-08-01T00:12:38;1.63;;;0.85;;
15990;SDS011;8100;50.994;4.538;2023-08-01T00:15:25;1.25;;;0.82;;
15990;SDS011;8100;50.994;4.538;2023-08-01T00:18:12;3.60;;;1.02;;
15990;SDS011;8100;50.994;4.538;2023-08-01T00:20:59;2.20;;;1.20;;
15990;SDS011;8100;50.994;4.538;2023-08-01T00:23:48;4.10;;;1.00;;
15990;SDS011;8100;50.994;4.538;2023-08-01T00:26:37;3.63;;;1.13;;
15990;SDS011;8100;50.994;4.538;2023-08-01T00:29:24;1.77;;;1.10;;
15990;SDS011;8100;50.994;4.538;2023-08-01T00:32:11;2.95;;;1.10;;
15990;SDS011;8100;50.994;4.538;2023-08-01T00:34:58;3.58;;;1.10;;
15990;SDS011;8100;50.994;4.538;2023-08-01T00:37:46;4.05;;;1.45;;
15990;SDS011;8100;50.994;4.538;2023-08-01T00:40:34;1.80;;;1.25;;
15990;SDS011;8100;50.994;4.538;2023-08-01T00:43:22;2.50;;;1.17;;
15990;SDS011;8100;50.994;4.538;2023-08-01T00:46:09;2.60;;;1.40;;
15990;SDS011;8100;50.994;4.538;2023-08-01T00:48:57;2.67;;;1.13;;
15990;SDS011;8100;50.994;4.538;2023-08-01T00:51:45;2.90;;;1.40;;
15990;SDS011;8100;50.994;4.538;2023-08-01T00:54:33;2.72;;;1.20;;
15990;SDS011;8100;50.994;4.538;2023-08-01T00:57:23;2.33;;;1.30;;
15990;SDS011;8100;50.994;4.538;2023-08-01T01:00:11;2.45;;;1.35;;
15990;SDS011;8100;50.994;4.538;2023-08-01T01:02:59;3.15;;;1.30;;
15990;SDS011;8100;50.994;4.538;2023-08-01T01:05:48;2.60;;;1.52;;
15990;SDS011;8100;50.994;4.538;2023-08-01T01:08:40;6.40;;;1.70;;
15990;SDS011;8100;50.994;4.538;2023-08-01T01:11:27;4.90;;;1.50;;
15990;SDS011;8100;50.994;4.538;2023-08-01T01:14:15;3.00;;;1.75;;
15990;SDS011;8100;50.994;4.538;2023-08-01T01:17:03;4.05;;;1.35;;
15990;SDS011;8100;50.994;4.538;2023-08-01T01:19:50;4.25;;;1.70;;
15990;SDS011;8100;50.994;4.538;2023-08-01T01:22:40;2.22;;;1.35;;
15990;SDS011;8100;50.994;4.538;2023-08-01T01:25:29;3.20;;;1.55;;
15990;SDS011;8100;50.994;4.538;2023-08-01T01:28:17;2.65;;;1.58;;
15990;SDS011;8100;50.994;4.538;2023-08-01T01:31:05;4.80;;;1.90;;
15990;SDS011;8100;50.994;4.538;2023-08-01T01:33:53;2.65;;;1.65;;
15990;SDS011;8100;50.994;4.538;2023-08-01T01:36:41;3.40;;;1.65;;
15990;SDS011;8100;50.994;4.538;2023-08-01T01:39:30;4.57;;;1.90;;
15990;SDS011;8100;50.994;4.538;2023-08-01T01:42:17;2.60;;;1.70;;
15990;SDS011;8100;50.994;4.538;2023-08-01T01:45:05;4.22;;;1.95;;
15990;SDS011;8100;50.994;4.538;2023-08-01T01:47:53;2.90;;;1.67;;
15990;SDS011;8100;50.994;4.538;2023-08-01T01:50:40;2.67;;;1.60;;
15990;SDS011;8100;50.994;4.538;2023-08-01T01:53:27;3.90;;;1.90;;
15990;SDS011;8100;50.994;4.538;2023-08-01T01:56:16;4.20;;;1.73;;
15990;SDS011;8100;50.994;4.538;2023-08-01T01:59:03;4.60;;;1.67;;
15990;SDS011;8100;50.994;4.538;2023-08-01T02:01:50;3.83;;;1.90;;
15990;SDS011;8100;50.994;4.538;2023-08-01T02:04:38;4.72;;;2.13;;
15990;SDS011;8100;50.994;4.538;2023-08-01T02:07:25;4.20;;;1.58;;
15990;SDS011;8100;50.994;4.538;2023-08-01T02:10:12;5.75;;;2.00;;
15990;SDS011;8100;50.994;4.538;2023-08-01T02:13:01;5.25;;;1.75;;
15990;SDS011;8100;50.994;4.538;2023-08-01T02:15:48;4.50;;;2.05;;
15990;SDS011;8100;50.994;4.538;2023-08-01T02:18:35;3.40;;;2.13;;
15990;SDS011;8100;50.994;4.538;2023-08-01T02:21:22;5.13;;;2.20;;
15990;SDS011;8100;50.994;4.538;2023-08-01T02:24:10;5.35;;;2.15;;
15990;SDS011;8100;50.994;4.538;2023-08-01T02:26:57;4.65;;;2.05;;
15990;SDS011;8100;50.994;4.538;2023-08-01T02:29:46;4.82;;;2.08;;
15990;SDS011;8100;50.994;4.538;2023-08-01T02:32:35;4.38;;;2.40;;
15990;SDS011;8100;50.994;4.538;2023-08-01T02:35:22;7.55;;;2.80;;
15990;SDS011;8100;50.994;4.538;2023-08-01T02:38:09;4.35;;;2.40;;
15990;SDS011;8100;50.994;4.538;2023-08-01T02:40:57;5.70;;;2.95;;
15990;SDS011;8100;50.994;4.538;2023-08-01T02:43:44;5.97;;;2.55;;
15990;SDS011;8100;50.994;4.538;2023-08-01T02:46:32;5.45;;;3.00;;
15990;SDS011;8100;50.994;4.538;2023-08-01T02:49:20;7.40;;;3.42;;
15990;SDS011;8100;50.994;4.538;2023-08-01T02:52:07;8.07;;;3.42;;
15990;SDS011;8100;50.994;4.538;2023-08-01T02:54:55;4.70;;;2.92;;
15990;SDS011;8100;50.994;4.538;2023-08-01T02:57:43;5.82;;;3.15;;
15990;SDS011;8100;50.994;4.538;2023-08-01T03:00:30;6.00;;;3.63;;
15990;SDS011;8100;50.994;4.538;2023-08-01T03:03:19;6.70;;;3.50;;
15990;SDS011;8100;50.994;4.538;2023-08-01T03:06:07;6.00;;;3.58;;
15990;SDS011;8100;50.994;4.538;2023-08-01T03:08:54;6.43;;;3.53;;
15990;SDS011;8100;50.994;4.538;2023-08-01T03:11:41;8.85;;;3.65;;
15990;SDS011;8100;50.994;4.538;2023-08-01T03:14:29;7.70;;;3.97;;
15990;SDS011;8100;50.994;4.538;2023-08-01T03:17:16;9.07;;;3.90;;
15990;SDS011;8100;50.994;4.538;2023-08-01T03:20:06;7.43;;;3.97;;
15990;SDS011;8100;50.994;4.538;2023-08-01T03:22:56;7.38;;;4.00;;
15990;SDS011;8100;50.994;4.538;2023-08-01T03:25:43;9.02;;;3.63;;
15990;SDS011;8100;50.994;4.538;2023-08-01T03:28:30;9.27;;;4.20;;
15990;SDS011;8100;50.994;4.538;2023-08-01T03:31:18;9.45;;;4.70;;
15990;SDS011;8100;50.994;4.538;2023-08-01T03:34:05;7.00;;;4.20;;
15990;SDS011;8100;50.994;4.538;2023-08-01T03:36:55;7.90;;;4.00;;
15990;SDS011;8100;50.994;4.538;2023-08-01T03:39:43;8.90;;;4.00;;
15990;SDS011;8100;50.994;4.538;2023-08-01T03:42:31;7.45;;;4.03;;
15990;SDS011;8100;50.994;4.538;2023-08-01T03:45:18;8.90;;;4.32;;
15990;SDS011;8100;50.994;4.538;2023-08-01T03:48:05;7.65;;;4.15;;
15990;SDS011;8100;50.994;4.538;2023-08-01T03:50:53;7.40;;;4.22;;
15990;SDS011;8100;50.994;4.538;2023-08-01T03:53:41;7.95;;;4.40;;
15990;SDS011;8100;50.994;4.538;2023-08-01T03:56:29;9.35;;;4.50;;
15990;SDS011;8100;50.994;4.538;2023-08-01T03:59:17;6.40;;;3.95;;
15990;SDS011;8100;50.994;4.538;2023-08-01T04:02:05;9.45;;;4.15;;
15990;SDS011;8100;50.994;4.538;2023-08-01T04:04:52;8.30;;;4.20;;
15990;SDS011;8100;50.994;4.538;2023-08-01T04:07:40;7.07;;;3.88;;
15990;SDS011;8100;50.994;4.538;2023-08-01T04:10:29;7.57;;;4.20;;
15990;SDS011;8100;50.994;4.538;2023-08-01T04:13:17;8.32;;;4.20;;
15990;SDS011;8100;50.994;4.538;2023-08-01T04:16:04;13.73;;;4.60;;
15990;SDS011;8100;50.994;4.538;2023-08-01T04:18:51;8.02;;;3.67;;
15990;SDS011;8100;50.994;4.538;2023-08-01T04:21:39;6.47;;;3.90;;
15990;SDS011;8100;50.994;4.538;2023-08-01T04:24:26;9.20;;;4.38;;
15990;SDS011;8100;50.994;4.538;2023-08-01T04:27:16;7.32;;;3.97;;
15990;SDS011;8100;50.994;4.538;2023-08-01T04:30:04;7.97;;;4.07;;
15990;SDS011;8100;50.994;4.538;2023-08-01T04:32:52;11.32;;;4.38;;
15990;SDS011;8100;50.994;4.538;2023-08-01T04:35:39;9.35;;;4.40;;
15990;SDS011;8100;50.994;4.538;2023-08-01T04:38:27;8.50;;;4.22;;
15990;SDS011;8100;50.994;4.538;2023-08-01T04:41:14;9.77;;;4.10;;
15990;SDS011;8100;50.994;4.538;2023-08-01T04:44:03;6.97;;;4.28;;
15990;SDS011;8100;50.994;4.538;2023-08-01T04:46:50;8.98;;;4.38;;
15990;SDS011;8100;50.994;4.538;2023-08-01T04:49:37;9.38;;;4.00;;
15990;SDS011;8100;50.994;4.538;2023-08-01T04:52:25;11.25;;;4.50;;
15990;SDS011;8100;50.994;4.538;2023-08-01T04:55:12;7.57;;;3.80;;
15990;SDS011;8100;50.994;4.538;2023-08-01T04:57:59;8.07;;;3.92;;
15990;SDS011;8100;50.994;4.538;2023-08-01T05:00:48;12.45;;;4.70;;
15990;SDS011;8100;50.994;4.538;2023-08-01T05:03:35;10.63;;;4.47;;
15990;SDS011;8100;50.994;4.538;2023-08-01T05:06:23;9.52;;;4.22;;
15990;SDS011;8100;50.994;4.538;2023-08-01T05:09:10;10.25;;;4.45;;
15990;SDS011;8100;50.994;4.538;2023-08-01T05:11:57;11.05;;;4.40;;
15990;SDS011;8100;50.994;4.538;2023-08-01T05:14:44;6.57;;;3.92;;
15990;SDS011;8100;50.994;4.538;2023-08-01T05:17:33;7.18;;;3.92;;
15990;SDS011;8100;50.994;4.538;2023-08-01T05:20:20;10.02;;;4.10;;
15990;SDS011;8100;50.994;4.538;2023-08-01T05:23:08;9.13;;;4.40;;
15990;SDS011;8100;50.994;4.538;2023-08-01T05:25:55;6.82;;;3.80;;
15990;SDS011;8100;50.994;4.538;2023-08-01T05:28:43;10.18;;;4.25;;
15990;SDS011;8100;50.994;4.538;2023-08-01T05:31:30;9.45;;;4.47;;
15990;SDS011;8100;50.994;4.538;2023-08-01T05:34:18;8.27;;;3.72;;
15990;SDS011;8100;50.994;4.538;2023-08-01T05:37:06;9.00;;;4.20;;
15990;SDS011;8100;50.994;4.538;2023-08-01T05:39:53;7.55;;;3.80;;
15990;SDS011;8100;50.994;4.538;2023-08-01T05:42:40;8.85;;;4.45;;
15990;SDS011;8100;50.994;4.538;2023-08-01T05:45:28;11.13;;;4.20;;
15990;SDS011;8100;50.994;4.538;2023-08-01T05:48:15;7.65;;;3.92;;
15990;SDS011;8100;50.994;4.538;2023-08-01T05:51:04;6.63;;;4.07;;
15990;SDS011;8100;50.994;4.538;2023-08-01T05:53:51;11.43;;;4.07;;
15990;SDS011;8100;50.994;4.538;2023-08-01T05:56:38;7.88;;;3.97;;
15990;SDS011;8100;50.994;4.538;2023-08-01T05:59:26;8.02;;;4.00;;
15990;SDS011;8100;50.994;4.538;2023-08-01T06:02:13;7.28;;;3.75;;
15990;SDS011;8100;50.994;4.538;2023-08-01T06:05:00;10.25;;;4.00;;
15990;SDS011;8100;50.994;4.538;2023-08-01T06:07:49;8.13;;;3.72;;
15990;SDS011;8100;50.994;4.538;2023-08-01T06:10:36;8.55;;;4.20;;
15990;SDS011;8100;50.994;4.538;2023-08-01T06:13:24;10.23;;;4.32;;
15990;SDS011;8100;50.994;4.538;2023-08-01T06:16:12;8.40;;;4.05;;
15990;SDS011;8100;50.994;4.538;2023-08-01T06:18:59;9.27;;;4.53;;
15990;SDS011;8100;50.994;4.538;2023-08-01T06:21:47;7.30;;;4.00;;
15990;SDS011;8100;50.994;4.538;2023-08-01T06:24:35;8.52;;;4.15;;
15990;SDS011;8100;50.994;4.538;2023-08-01T06:27:23;9.35;;;4.00;;
15990;SDS011;8100;50.994;4.538;2023-08-01T06:30:11;8.30;;;4.28;;
15990;SDS011;8100;50.994;4.538;2023-08-01T06:32:58;11.48;;;4.10;;
15990;SDS011;8100;50.994;4.538;2023-08-01T06:35:46;10.93;;;4.25;;
15990;SDS011;8100;50.994;4.538;2023-08-01T06:38:33;9.35;;;4.55;;
15990;SDS011;8100;50.994;4.538;2023-08-01T06:41:22;7.93;;;4.10;;
15990;SDS011;8100;50.994;4.538;2023-08-01T06:44:09;8.40;;;4.35;;
15990;SDS011;8100;50.994;4.538;2023-08-01T06:46:56;10.85;;;4.57;;
15990;SDS011;8100;50.994;4.538;2023-08-01T06:49:44;8.85;;;4.80;;
15990;SDS011;8100;50.994;4.538;2023-08-01T06:52:31;9.43;;;4.70;;
15990;SDS011;8100;50.994;4.538;2023-08-01T06:55:18;8.02;;;4.07;;
15990;SDS011;8100;50.994;4.538;2023-08-01T06:58:07;9.85;;;4.53;;
15990;SDS011;8100;50.994;4.538;2023-08-01T07:00:54;9.93;;;3.90;;
15990;SDS011;8100;50.994;4.538;2023-08-01T07:03:42;10.38;;;4.45;;
15990;SDS011;8100;50.994;4.538;2023-08-01T07:06:30;7.18;;;4.15;;
15990;SDS011;8100;50.994;4.538;2023-08-01T07:09:18;10.07;;;4.45;;
15990;SDS011;8100;50.994;4.538;2023-08-01T07:12:05;8.98;;;3.70;;
15990;SDS011;8100;50.994;4.538;2023-08-01T07:14:54;7.25;;;3.60;;
15990;SDS011;8100;50.994;4.538;2023-08-01T07:17:42;8.13;;;3.63;;
15990;SDS011;8100;50.994;4.538;2023-08-01T07:20:29;5.93;;;3.28;;
15990;SDS011;8100;50.994;4.538;2023-08-01T07:23:17;7.03;;;3.30;;
15990;SDS011;8100;50.994;4.538;2023-08-01T07:26:04;7.60;;;3.60;;
15990;SDS011;8100;50.994;4.538;2023-08-01T07:28:51;9.27;;;3.60;;
15990;SDS011;8100;50.994;4.538;2023-08-01T07:31:40;8.98;;;3.17;;
15990;SDS011;8100;50.994;4.538;2023-08-01T07:34:28;7.13;;;3.33;;
15990;SDS011;8100;50.994;4.538;2023-08-01T07:37:15;6.68;;;3.10;;
15990;SDS011;8100;50.994;4.538;2023-08-01T07:40:02;7.25;;;3.20;;
15990;SDS011;8100;50.994;4.538;2023-08-01T07:42:50;6.30;;;3.15;;
15990;SDS011;8100;50.994;4.538;2023-08-01T07:45:38;6.25;;;2.90;;
15990;SDS011;8100;50.994;4.538;2023-08-01T07:48:26;8.75;;;3.05;;
15990;SDS011;8100;50.994;4.538;2023-08-01T07:51:14;6.85;;;3.05;;
15990;SDS011;8100;50.994;4.538;2023-08-01T07:54:01;5.82;;;3.22;;
15990;SDS011;8100;50.994;4.538;2023-08-01T07:56:48;6.57;;;3.03;;
15990;SDS011;8100;50.994;4.538;2023-08-01T07:59:36;7.13;;;3.30;;
15990;SDS011;8100;50.994;4.538;2023-08-01T08:02:23;8.15;;;3.15;;
15990;SDS011;8100;50.994;4.538;2023-08-01T08:05:12;6.28;;;2.83;;
15990;SDS011;8100;50.994;4.538;2023-08-01T08:07:59;6.18;;;2.78;;
15990;SDS011;8100;50.994;4.538;2023-08-01T08:10:46;6.25;;;2.97;;
15990;SDS011;8100;50.994;4.538;2023-08-01T08:13:34;7.53;;;3.40;;
15990;SDS011;8100;50.994;4.538;2023-08-01T08:16:21;7.30;;;3.10;;
15990;SDS011;8100;50.994;4.538;2023-08-01T08:19:08;6.07;;;3.17;;
15990;SDS011;8100;50.994;4.538;2023-08-01T08:21:57;8.35;;;3.45;;
15990;SDS011;8100;50.994;4.538;2023-08-01T08:24:44;6.15;;;3.13;;
15990;SDS011;8100;50.994;4.538;2023-08-01T08:27:32;6.18;;;3.42;;
15990;SDS011;8100;50.994;4.538;2023-08-01T08:30:19;6.38;;;3.15;;
15990;SDS011;8100;50.994;4.538;2023-08-01T08:33:06;6.60;;;3.40;;
15990;SDS011;8100;50.994;4.538;2023-08-01T08:35:55;10.20;;;3.63;;
15990;SDS011;8100;50.994;4.538;2023-08-01T08:38:44;7.75;;;3.75;;
15990;SDS011;8100;50.994;4.538;2023-08-01T08:41:32;10.48;;;4.30;;
15990;SDS011;8100;50.994;4.538;2023-08-01T08:44:23;8.30;;;3.85;;
15990;SDS011;8100;50.994;4.538;2023-08-01T08:47:11;9.25;;;4.07;;
15990;SDS011;8100;50.994;4.538;2023-08-01T08:49:58;7.97;;;3.17;;
15990;SDS011;8100;50.994;4.538;2023-08-01T08:52:46;8.38;;;3.47;;
15990;SDS011;8100;50.994;4.538;2023-08-01T08:55:35;9.43;;;4.00;;
15990;SDS011;8100;50.994;4.538;2023-08-01T08:58:23;8.52;;;3.70;;
15990;SDS011;8100;50.994;4.538;2023-08-01T09:01:10;6.28;;;3.25;;
15990;SDS011;8100;50.994;4.538;2023-08-01T09:03:58;7.65;;;3.40;;
15990;SDS011;8100;50.994;4.538;2023-08-01T09:06:46;8.10;;;3.78;;
15990;SDS011;8100;50.994;4.538;2023-08-01T09:09:35;6.63;;;3.58;;
15990;SDS011;8100;50.994;4.538;2023-08-01T09:12:24;7.10;;;3.50;;
15990;SDS011;8100;50.994;4.538;2023-08-01T09:15:12;8.32;;;3.22;;
15990;SDS011;8100;50.994;4.538;2023-08-01T09:18:00;8.55;;;3.10;;
15990;SDS011;8100;50.994;4.538;2023-08-01T09:20:53;8.68;;;3.60;;
15990;SDS011;8100;50.994;4.538;2023-08-01T09:23:42;6.25;;;3.28;;
15990;SDS011;8100;50.994;4.538;2023-08-01T09:26:29;5.55;;;3.00;;
15990;SDS011;8100;50.994;4.538;2023-08-01T09:29:19;6.63;;;2.95;;
15990;SDS011;8100;50.994;4.538;2023-08-01T09:32:11;7.15;;;3.20;;
15990;SDS011;8100;50.994;4.538;2023-08-01T09:34:59;5.40;;;3.10;;
15990;SDS011;8100;50.994;4.538;2023-08-01T09:37:47;4.43;;;3.00;;
15990;SDS011;8100;50.994;4.538;2023-08-01T09:40:37;4.90;;;3.17;;
15990;SDS011;8100;50.994;4.538;2023-08-01T09:43:25;6.53;;;3.30;;
15990;SDS011;8100;50.994;4.538;2023-08-01T09:46:21;4.40;;;3.25;;
15990;SDS011;8100;50.994;4.538;2023-08-01T09:49:09;5.85;;;3.42;;
15990;SDS011;8100;50.994;4.538;2023-08-01T09:51:57;5.82;;;3.30;;
15990;SDS011;8100;50.994;4.538;2023-08-01T09:54:46;6.25;;;3.30;;
15990;SDS011;8100;50.994;4.538;2023-08-01T09:57:34;6.68;;;3.53;;
15990;SDS011;8100;50.994;4.538;2023-08-01T10:00:25;4.72;;;2.50;;
15990;SDS011;8100;50.994;4.538;2023-08-01T10:03:14;6.32;;;3.30;;
15990;SDS011;8100;50.994;4.538;2023-08-01T10:06:01;6.05;;;3.03;;
15990;SDS011;8100;50.994;4.538;2023-08-01T10:08:50;6.15;;;2.60;;
15990;SDS011;8100;50.994;4.538;2023-08-01T10:11:38;5.97;;;3.03;;
15990;SDS011;8100;50.994;4.538;2023-08-01T10:14:27;4.60;;;3.05;;
15990;SDS011;8100;50.994;4.538;2023-08-01T10:17:15;6.15;;;2.80;;
15990;SDS011;8100;50.994;4.538;2023-08-01T10:20:05;7.07;;;2.50;;
15990;SDS011;8100;50.994;4.538;2023-08-01T10:22:54;7.45;;;3.08;;
15990;SDS011;8100;50.994;4.538;2023-08-01T10:25:41;3.72;;;2.35;;
15990;SDS011;8100;50.994;4.538;2023-08-01T10:28:32;4.20;;;2.40;;
15990;SDS011;8100;50.994;4.538;2023-08-01T10:31:20;8.05;;;2.50;;
15990;SDS011;8100;50.994;4.538;2023-08-01T10:34:12;8.05;;;2.97;;
15990;SDS011;8100;50.994;4.538;2023-08-01T10:37:01;5.55;;;3.00;;
15990;SDS011;8100;50.994;4.538;2023-08-01T10:39:55;6.57;;;2.53;;
15990;SDS011;8100;50.994;4.538;2023-08-01T10:42:44;4.95;;;2.70;;
15990;SDS011;8100;50.994;4.538;2023-08-01T10:45:32;6.90;;;3.03;;
15990;SDS011;8100;50.994;4.538;2023-08-01T10:48:19;7.60;;;2.92;;
15990;SDS011;8100;50.994;4.538;2023-08-01T10:51:07;5.30;;;2.95;;
15990;SDS011;8100;50.994;4.538;2023-08-01T10:53:55;5.50;;;2.90;;
15990;SDS011;8100;50.994;4.538;2023-08-01T10:56:44;5.35;;;3.13;;
15990;SDS011;8100;50.994;4.538;2023-08-01T10:59:31;4.90;;;3.05;;
15990;SDS011;8100;50.994;4.538;2023-08-01T11:02:20;5.68;;;3.17;;
15990;SDS011;8100;50.994;4.538;2023-08-01T11:05:08;6.53;;;3.28;;
15990;SDS011;8100;50.994;4.538;2023-08-01T11:07:55;4.85;;;3.20;;
15990;SDS011;8100;50.994;4.538;2023-08-01T11:10:48;5.10;;;2.75;;
15990;SDS011;8100;50.994;4.538;2023-08-01T11:13:36;6.70;;;2.78;;
15990;SDS011;8100;50.994;4.538;2023-08-01T11:16:24;5.10;;;2.58;;
15990;SDS011;8100;50.994;4.538;2023-08-01T11:19:18;4.95;;;2.80;;
15990;SDS011;8100;50.994;4.538;2023-08-01T11:22:08;4.25;;;2.50;;
15990;SDS011;8100;50.994;4.538;2023-08-01T11:24:56;8.52;;;3.10;;
15990;SDS011;8100;50.994;4.538;2023-08-01T11:27:45;4.65;;;3.17;;
15990;SDS011;8100;50.994;4.538;2023-08-01T11:30:33;6.65;;;2.97;;
15990;SDS011;8100;50.994;4.538;2023-08-01T11:33:21;4.32;;;2.92;;
15990;SDS011;8100;50.994;4.538;2023-08-01T11:36:09;5.82;;;2.88;;
15990;SDS011;8100;50.994;4.538;2023-08-01T11:38:57;6.03;;;2.60;;
15990;SDS011;8100;50.994;4.538;2023-08-01T11:41:45;6.13;;;2.92;;
15990;SDS011;8100;50.994;4.538;2023-08-01T11:44:34;5.72;;;2.10;;
15990;SDS011;8100;50.994;4.538;2023-08-01T11:47:21;4.00;;;2.30;;
15990;SDS011;8100;50.994;4.538;2023-08-01T11:50:09;5.10;;;2.00;;
15990;SDS011;8100;50.994;4.538;2023-08-01T11:52:58;7.22;;;2.10;;
15990;SDS011;8100;50.994;4.538;2023-08-01T11:55:45;7.55;;;2.20;;
15990;SDS011;8100;50.994;4.538;2023-08-01T11:58:33;5.45;;;2.30;;
15990;SDS011;8100;50.994;4.538;2023-08-01T12:01:23;5.28;;;2.10;;
15990;SDS011;8100;50.994;4.538;2023-08-01T12:04:11;4.22;;;2.00;;
15990;SDS011;8100;50.994;4.538;2023-08-01T12:07:12;5.18;;;1.83;;
15990;SDS011;8100;50.994;4.538;2023-08-01T12:10:00;5.05;;;2.25;;
15990;SDS011;8100;50.994;4.538;2023-08-01T12:12:48;5.20;;;2.03;;
15990;SDS011;8100;50.994;4.538;2023-08-01T12:15:35;6.30;;;2.20;;
15990;SDS011;8100;50.994;4.538;2023-08-01T12:18:24;5.68;;;2.20;;
15990;SDS011;8100;50.994;4.538;2023-08-01T12:21:12;4.03;;;2.10;;
15990;SDS011;8100;50.994;4.538;2023-08-01T12:24:00;2.53;;;1.70;;
15990;SDS011;8100;50.994;4.538;2023-08-01T12:26:47;4.72;;;1.60;;
15990;SDS011;8100;50.994;4.538;2023-08-01T12:29:35;5.38;;;1.98;;
15990;SDS011;8100;50.994;4.538;2023-08-01T12:32:22;4.63;;;1.50;;
15990;SDS011;8100;50.994;4.538;2023-08-01T12:35:11;5.00;;;1.60;;
15990;SDS011;8100;50.994;4.538;2023-08-01T12:37:59;2.13;;;1.27;;
15990;SDS011;8100;50.994;4.538;2023-08-01T12:40:46;4.90;;;1.30;;
15990;SDS011;8100;50.994;4.538;2023-08-01T12:43:34;3.10;;;1.20;;
15990;SDS011;8100;50.994;4.538;2023-08-01T12:46:21;6.43;;;1.33;;
15990;SDS011;8100;50.994;4.538;2023-08-01T12:49:08;5.07;;;1.55;;
15990;SDS011;8100;50.994;4.538;2023-08-01T12:51:57;4.18;;;1.10;;
15990;SDS011;8100;50.994;4.538;2023-08-01T12:54:44;3.67;;;1.10;;
15990;SDS011;8100;50.994;4.538;2023-08-01T12:57:33;2.92;;;1.08;;
15990;SDS011;8100;50.994;4.538;2023-08-01T13:00:20;2.10;;;0.93;;
15990;SDS011;8100;50.994;4.538;2023-08-01T13:03:08;2.75;;;0.95;;
15990;SDS011;8100;50.994;4.538;2023-08-01T13:05:55;4.25;;;0.95;;
15990;SDS011;8100;50.994;4.538;2023-08-01T13:08:45;8.93;;;1.30;;
15990;SDS011;8100;50.994;4.538;2023-08-01T13:11:32;5.70;;;1.23;;
15990;SDS011;8100;50.994;4.538;2023-08-01T13:14:19;2.33;;;1.20;;
15990;SDS011;8100;50.994;4.538;2023-08-01T13:17:07;1.08;;;0.80;;
15990;SDS011;8100;50.994;4.538;2023-08-01T13:19:54;3.42;;;0.93;;
15990;SDS011;8100;50.994;4.538;2023-08-01T13:22:41;3.72;;;1.17;;
15990;SDS011;8100;50.994;4.538;2023-08-01T13:25:30;3.45;;;1.00;;
15990;SDS011;8100;50.994;4.538;2023-08-01T13:28:17;3.65;;;1.02;;
15990;SDS011;8100;50.994;4.538;2023-08-01T13:31:05;3.85;;;1.30;;
15990;SDS011;8100;50.994;4.538;2023-08-01T13:33:52;4.80;;;0.90;;
15990;SDS011;8100;50.994;4.538;2023-08-01T13:36:39;6.07;;;1.48;;
15990;SDS011;8100;50.994;4.538;2023-08-01T13:39:26;2.53;;;1.05;;
15990;SDS011;8100;50.994;4.538;2023-08-01T13:42:15;5.15;;;1.23;;
15990;SDS011;8100;50.994;4.538;2023-08-01T13:45:03;3.42;;;1.00;;
15990;SDS011;8100;50.994;4.538;2023-08-01T13:47:51;4.30;;;1.23;;
15990;SDS011;8100;50.994;4.538;2023-08-01T13:50:38;3.50;;;1.17;;
15990;SDS011;8100;50.994;4.538;2023-08-01T13:53:25;4.70;;;1.10;;
15990;SDS011;8100;50.994;4.538;2023-08-01T13:56:12;3.10;;;0.93;;
15990;SDS011;8100;50.994;4.538;2023-08-01T13:59:01;3.55;;;1.00;;
15990;SDS011;8100;50.994;4.538;2023-08-01T14:01:48;5.40;;;0.90;;
15990;SDS011;8100;50.994;4.538;2023-08-01T14:04:36;3.08;;;1.20;;
15990;SDS011;8100;50.994;4.538;2023-08-01T14:07:23;3.90;;;1.30;;
15990;SDS011;8100;50.994;4.538;2023-08-01T14:10:10;3.30;;;1.17;;
15990;SDS011;8100;50.994;4.538;2023-08-01T14:12:57;3.08;;;1.30;;
15990;SDS011;8100;50.994;4.538;2023-08-01T14:15:46;4.03;;;1.10;;
15990;SDS011;8100;50.994;4.538;2023-08-01T14:18:34;2.15;;;1.10;;
15990;SDS011;8100;50.994;4.538;2023-08-01T14:21:21;2.25;;;1.10;;
15990;SDS011;8100;50.994;4.538;2023-08-01T14:24:08;4.07;;;1.48;;
15990;SDS011;8100;50.994;4.538;2023-08-01T14:26:56;3.25;;;1.25;;
15990;SDS011;8100;50.994;4.538;2023-08-01T14:29:43;6.65;;;1.35;;
15990;SDS011;8100;50.994;4.538;2023-08-01T14:32:31;5.18;;;1.30;;
15990;SDS011;8100;50.994;4.538;2023-08-01T14:35:19;3.85;;;1.30;;
15990;SDS011;8100;50.994;4.538;2023-08-01T14:38:06;4.82;;;1.30;;
15990;SDS011;8100;50.994;4.538;2023-08-01T14:40:53;4.43;;;1.10;;
15990;SDS011;8100;50.994;4.538;2023-08-01T14:43:41;3.83;;;1.10;;
15990;SDS011;8100;50.994;4.538;2023-08-01T14:46:30;4.68;;;1.25;;
15990;SDS011;8100;50.994;4.538;2023-08-01T14:49:18;5.30;;;1.23;;
15990;SDS011;8100;50.994;4.538;2023-08-01T14:52:08;3.80;;;1.40;;
15990;SDS011;8100;50.994;4.538;2023-08-01T14:54:56;3.70;;;1.27;;
15990;SDS011;8100;50.994;4.538;2023-08-01T14:57:43;5.63;;;1.33;;
15990;SDS011;8100;50.994;4.538;2023-08-01T15:00:33;3.83;;;1.38;;
15990;SDS011;8100;50.994;4.538;2023-08-01T15:03:21;3.28;;;1.30;;
15990;SDS011;8100;50.994;4.538;2023-08-01T15:06:10;4.20;;;1.40;;
15990;SDS011;8100;50.994;4.538;2023-08-01T15:08:58;3.72;;;1.20;;
15990;SDS011;8100;50.994;4.538;2023-08-01T15:11:45;2.05;;;1.00;;
15990;SDS011;8100;50.994;4.538;2023-08-01T15:14:32;4.93;;;1.33;;
15990;SDS011;8100;50.994;4.538;2023-08-01T15:17:20;2.13;;;0.93;;
15990;SDS011;8100;50.994;4.538;2023-08-01T15:20:08;5.15;;;1.42;;
15990;SDS011;8100;50.994;4.538;2023-08-01T15:22:57;2.47;;;1.25;;
15990;SDS011;8100;50.994;4.538;2023-08-01T15:25:50;9.43;;;1.50;;
15990;SDS011;8100;50.994;4.538;2023-08-01T15:28:39;3.42;;;1.38;;
15990;SDS011;8100;50.994;4.538;2023-08-01T15:31:26;6.07;;;1.70;;
15990;SDS011;8100;50.994;4.538;2023-08-01T15:34:13;3.78;;;2.10;;
15990;SDS011;8100;50.994;4.538;2023-08-01T15:37:00;8.55;;;2.20;;
15990;SDS011;8100;50.994;4.538;2023-08-01T15:39:49;7.65;;;2.15;;
15990;SDS011;8100;50.994;4.538;2023-08-01T15:42:36;7.03;;;1.70;;
15990;SDS011;8100;50.994;4.538;2023-08-01T15:45:24;3.72;;;1.33;;
15990;SDS011;8100;50.994;4.538;2023-08-01T15:48:12;4.25;;;1.40;;
15990;SDS011;8100;50.994;4.538;2023-08-01T15:50:59;14.45;;;4.57;;
15990;SDS011;8100;50.994;4.538;2023-08-01T15:53:47;5.95;;;2.13;;
15990;SDS011;8100;50.994;4.538;2023-08-01T15:56:35;3.33;;;1.17;;
15990;SDS011;8100;50.994;4.538;2023-08-01T15:59:22;5.07;;;1.20;;
15990;SDS011;8100;50.994;4.538;2023-08-01T16:02:10;2.65;;;1.17;;
15990;SDS011;8100;50.994;4.538;2023-08-01T16:04:57;3.30;;;1.17;;
15990;SDS011;8100;50.994;4.538;2023-08-01T16:07:44;4.28;;;1.10;;
15990;SDS011;8100;50.994;4.538;2023-08-01T16:10:32;3.88;;;1.50;;
15990;SDS011;8100;50.994;4.538;2023-08-01T16:13:21;5.07;;;1.42;;
15990;SDS011;8100;50.994;4.538;2023-08-01T16:16:08;3.25;;;1.10;;
15990;SDS011;8100;50.994;4.538;2023-08-01T16:18:56;2.92;;;1.33;;
15990;SDS011;8100;50.994;4.538;2023-08-01T16:21:43;4.10;;;1.75;;
15990;SDS011;8100;50.994;4.538;2023-08-01T16:24:30;3.95;;;1.38;;
15990;SDS011;8100;50.994;4.538;2023-08-01T16:27:18;5.32;;;1.40;;
15990;SDS011;8100;50.994;4.538;2023-08-01T16:30:07;3.63;;;1.35;;
15990;SDS011;8100;50.994;4.538;2023-08-01T16:32:56;3.25;;;1.27;;
15990;SDS011;8100;50.994;4.538;2023-08-01T16:35:43;2.85;;;1.10;;
15990;SDS011;8100;50.994;4.538;2023-08-01T16:38:30;3.88;;;1.27;;
15990;SDS011;8100;50.994;4.538;2023-08-01T16:41:18;4.57;;;1.70;;
15990;SDS011;8100;50.994;4.538;2023-08-01T16:44:07;4.00;;;1.50;;
15990;SDS011;8100;50.994;4.538;2023-08-01T16:46:56;3.78;;;1.50;;
15990;SDS011;8100;50.994;4.538;2023-08-01T16:49:45;3.22;;;1.42;;
15990;SDS011;8100;50.994;4.538;2023-08-01T16:52:33;4.70;;;1.20;;
15990;SDS011;8100;50.994;4.538;2023-08-01T16:55:20;6.10;;;1.50;;
15990;SDS011;8100;50.994;4.538;2023-08-01T16:58:07;3.88;;;1.48;;
15990;SDS011;8100;50.994;4.538;2023-08-01T17:00:55;7.25;;;1.70;;
15990;SDS011;8100;50.994;4.538;2023-08-01T17:03:43;5.00;;;1.42;;
15990;SDS011;8100;50.994;4.538;2023-08-01T17:06:30;4.65;;;1.27;;